| time (UTC) | temp F | wind direction | speed MPH | gust MPH | rain 1hr in | rain 24hr in | rain mn in | humidity % | barometer mb |
| 20260508033850 | 42 | 236 | 0.0 | 0.0 | 0.00 | 0.02 | 0.02 | 74 | 1016.5 |
| 20260508033348 | 42 | 267 | 2.0 | 3.0 | 0.00 | 0.02 | 0.02 | 77 | 1016.5 |
| 20260508032845 | 42 | 251 | 0.0 | 0.0 | 0.00 | 0.02 | 0.02 | 77 | 1016.4 |
| 20260508032343 | 43 | 276 | 0.0 | 0.0 | 0.00 | 0.02 | 0.02 | 71 | 1016.4 |
| 20260508031839 | 43 | 279 | 1.0 | 2.0 | 0.00 | 0.02 | 0.02 | 73 | 1016.5 |
| 20260508031336 | 43 | 229 | 0.0 | 0.0 | 0.00 | 0.02 | 0.02 | 74 | 1016.3 |
| 20260508030832 | 44 | 247 | 0.0 | 0.0 | 0.00 | 0.02 | 0.02 | 69 | 1016.3 |
| 20260508030330 | 45 | 252 | 0.0 | 0.0 | 0.00 | 0.02 | 0.02 | 62 | 1016.2 |
| 20260508025826 | 46 | 117 | 1.0 | 2.0 | 0.00 | 0.02 | 0.02 | 57 | 1016.2 |
| 20260508025323 | 46 | 253 | 0.0 | 0.0 | 0.00 | 0.02 | 0.02 | 63 | 1016.4 |
| 20260508024820 | 46 | 301 | 0.0 | 0.0 | 0.00 | 0.02 | 0.02 | 66 | 1016.2 |
| 20260508024317 | 47 | 268 | 0.0 | 0.0 | 0.00 | 0.02 | 0.02 | 62 | 1016.1 |
| 20260508023814 | 46 | 170 | 3.0 | 6.0 | 0.00 | 0.02 | 0.02 | 58 | 1016.0 |
| 20260508023310 | 46 | 171 | 0.0 | 0.0 | 0.00 | 0.02 | 0.02 | 64 | 1016.0 |
| 20260508022807 | 46 | 237 | 1.0 | 2.0 | 0.00 | 0.02 | 0.02 | 68 | 1015.8 |
| 20260508022306 | 45 | 313 | 1.0 | 2.0 | 0.00 | 0.02 | 0.02 | 70 | 1015.8 |
| 20260508021800 | 46 | 261 | 1.0 | 3.0 | 0.00 | 0.02 | 0.02 | 60 | 1015.7 |
| 20260508021255 | 48 | 276 | 1.0 | 2.0 | 0.00 | 0.02 | 0.02 | 64 | 1015.7 |
| 20260508020752 | 45 | 290 | 1.0 | 2.0 | 0.00 | 0.02 | 0.02 | 71 | 1015.6 |
| 20260508020250 | 44 | 258 | 0.0 | 0.0 | 0.00 | 0.02 | 0.02 | 74 | 1015.7 |
| 20260508015747 | 44 | 186 | 0.0 | 0.0 | 0.00 | 0.02 | 0.02 | 77 | 1015.4 |
| 20260508015244 | 44 | 279 | 0.0 | 0.0 | 0.00 | 0.02 | 0.02 | 77 | 1015.6 |
| 20260508014741 | 45 | 234 | 0.0 | 3.0 | 0.00 | 0.02 | 0.02 | 78 | 1015.6 |
| 20260508014238 | 45 | 224 | 0.0 | 0.0 | 0.00 | 0.02 | 0.02 | 76 | 1015.4 |
| 20260508013733 | 46 | 236 | 0.0 | 0.0 | 0.00 | 0.02 | 0.02 | 74 | 1015.4 |
| 20260508013230 | 46 | 254 | 0.0 | 0.0 | 0.00 | 0.02 | 0.02 | 73 | 1015.2 |
| 20260508012728 | 46 | 260 | 1.0 | 2.0 | 0.00 | 0.02 | 0.02 | 74 | 1015.1 |
| 20260508012224 | 47 | 227 | 0.0 | 0.0 | 0.00 | 0.02 | 0.02 | 68 | 1015.0 |
| 20260508011723 | 46 | 265 | 0.0 | 0.0 | 0.00 | 0.02 | 0.02 | 72 | 1015.0 |
| 20260508011220 | 47 | 313 | 0.0 | 0.0 | 0.00 | 0.02 | 0.02 | 67 | 1015.0 |
| 20260508010716 | 47 | 266 | 1.0 | 2.0 | 0.00 | 0.02 | 0.02 | 73 | 1014.9 |
| 20260508010214 | 47 | 310 | 4.0 | 7.0 | 0.00 | 0.02 | 0.02 | 68 | 1014.8 |
| 20260508005711 | 47 | 229 | 0.0 | 0.0 | 0.00 | 0.02 | 0.02 | 71 | 1014.6 |
| 20260508005208 | 48 | 268 | 2.0 | 2.0 | 0.00 | 0.02 | 0.02 | 71 | 1014.8 |
| 20260508004703 | 49 | 264 | 0.0 | 3.0 | 0.00 | 0.02 | 0.02 | 68 | 1014.8 |
| 20260508004200 | 47 | 156 | 3.0 | 3.0 | 0.00 | 0.02 | 0.02 | 68 | 1014.6 |
| 20260508003657 | 48 | 266 | 0.0 | 0.0 | 0.00 | 0.02 | 0.02 | 71 | 1014.5 |
| 20260508003154 | 49 | 281 | 0.0 | 0.0 | 0.00 | 0.02 | 0.02 | 69 | 1014.6 |
| 20260508002650 | 51 | 286 | 0.0 | 2.0 | 0.00 | 0.02 | 0.02 | 60 | 1014.4 |
| 20260508002148 | 49 | 293 | 2.0 | 3.0 | 0.00 | 0.02 | 0.02 | 69 | 1014.5 |
| 20260508001643 | 50 | 272 | 2.0 | 3.0 | 0.00 | 0.02 | 0.02 | 64 | 1014.4 |
| 20260508001139 | 50 | 256 | 0.0 | 0.0 | 0.00 | 0.02 | 0.02 | 62 | 1014.4 |
| 20260508000635 | 51 | 268 | 1.0 | 3.0 | 0.00 | 0.02 | 0.02 | 61 | 1014.4 |
| 20260508000133 | 52 | 279 | 0.0 | 0.0 | 0.00 | 0.02 | 0.02 | 59 | 1014.4 |
| 20260507235630 | 53 | 49 | 1.0 | 3.0 | 0.00 | 0.02 | 0.02 | 51 | 1014.2 |
| 20260507235127 | 53 | 122 | 0.0 | 2.0 | 0.00 | 0.02 | 0.02 | 51 | 1014.1 |
| 20260507234624 | 54 | 76 | 1.0 | 8.0 | 0.00 | 0.02 | 0.02 | 48 | 1014.0 |
| 20260507234120 | 54 | 189 | 0.0 | 1.0 | 0.00 | 0.02 | 0.02 | 50 | 1014.0 |
| 20260507233617 | 54 | 275 | 2.0 | 11.0 | 0.00 | 0.02 | 0.02 | 48 | 1013.7 |
| 20260507233116 | 54 | 135 | 2.0 | 9.0 | 0.00 | 0.02 | 0.02 | 48 | 1013.9 |
| 20260507232612 | 55 | 278 | 2.0 | 3.0 | 0.00 | 0.02 | 0.02 | 53 | 1013.9 |
| 20260507232109 | 55 | 253 | 4.0 | 4.0 | 0.00 | 0.02 | 0.02 | 47 | 1013.9 |
| 20260507231605 | 55 | 292 | 1.0 | 4.0 | 0.00 | 0.02 | 0.02 | 50 | 1013.6 |
| 20260507231103 | 55 | 275 | 4.0 | 8.0 | 0.00 | 0.02 | 0.02 | 47 | 1013.5 |
| 20260507230559 | 56 | 187 | 1.0 | 2.0 | 0.00 | 0.02 | 0.02 | 46 | 1013.6 |
| 20260507230056 | 56 | 222 | 4.0 | 10.0 | 0.00 | 0.02 | 0.02 | 46 | 1013.5 |
| 20260507225550 | 56 | 312 | 3.0 | 9.0 | 0.00 | 0.02 | 0.02 | 46 | 1013.6 |
| 20260507225047 | 57 | 165 | 2.0 | 4.0 | 0.00 | 0.02 | 0.02 | 47 | 1013.6 |
| 20260507224543 | 57 | 283 | 2.0 | 3.0 | 0.00 | 0.02 | 0.02 | 46 | 1013.5 |
| 20260507224040 | 58 | 261 | 3.0 | 8.0 | 0.00 | 0.02 | 0.02 | 47 | 1013.6 |
| 20260507223536 | 56 | 317 | 3.0 | 3.0 | 0.00 | 0.02 | 0.02 | 47 | 1013.6 |
| 20260507223033 | 57 | 290 | 2.0 | 3.0 | 0.00 | 0.02 | 0.02 | 46 | 1013.5 |
| 20260507222530 | 58 | 252 | 2.0 | 4.0 | 0.00 | 0.02 | 0.02 | 46 | 1013.4 |
| 20260507222026 | 58 | 165 | 2.0 | 4.0 | 0.00 | 0.02 | 0.02 | 44 | 1013.4 |
| 20260507221523 | 57 | 255 | 5.0 | 9.0 | 0.00 | 0.02 | 0.02 | 48 | 1013.3 |
| 20260507221020 | 56 | 282 | 5.0 | 7.0 | 0.00 | 0.02 | 0.02 | 48 | 1013.2 |
| 20260507220517 | 57 | 321 | 3.0 | 6.0 | 0.00 | 0.02 | 0.02 | 46 | 1013.2 |
| 20260507220015 | 57 | 260 | 1.0 | 3.0 | 0.00 | 0.02 | 0.02 | 51 | 1013.2 |
| 20260507215510 | 57 | 37 | 6.0 | 8.0 | 0.00 | 0.02 | 0.02 | 47 | 1012.9 |
| 20260507215009 | 58 | 237 | 3.0 | 9.0 | 0.00 | 0.02 | 0.02 | 47 | 1013.0 |
| 20260507214505 | 57 | 316 | 4.0 | 4.0 | 0.00 | 0.02 | 0.02 | 47 | 1012.8 |
| 20260507214001 | 58 | 39 | 5.0 | 6.0 | 0.00 | 0.02 | 0.02 | 45 | 1012.9 |
| 20260507213458 | 59 | 272 | 3.0 | 9.0 | 0.00 | 0.02 | 0.02 | 47 | 1012.8 |
| 20260507212955 | 59 | 326 | 6.0 | 9.0 | 0.00 | 0.02 | 0.02 | 43 | 1012.7 |
| 20260507212450 | 60 | 310 | 7.0 | 10.0 | 0.00 | 0.02 | 0.02 | 44 | 1012.6 |
| 20260507211948 | 58 | 193 | 1.0 | 2.0 | 0.00 | 0.02 | 0.02 | 47 | 1012.5 |
| 20260507211444 | 58 | 221 | 0.0 | 8.0 | 0.00 | 0.02 | 0.02 | 45 | 1012.6 |
| 20260507210941 | 59 | 165 | 0.0 | 4.0 | 0.00 | 0.02 | 0.02 | 52 | 1012.5 |
| 20260507210438 | 58 | 273 | 1.0 | 3.0 | 0.00 | 0.02 | 0.02 | 51 | 1012.5 |
| 20260507205934 | 58 | 175 | 0.0 | 4.0 | 0.00 | 0.02 | 0.02 | 50 | 1012.4 |
| 20260507205432 | 60 | 346 | 1.0 | 3.0 | 0.00 | 0.02 | 0.02 | 48 | 1012.5 |
| 20260507204928 | 58 | 215 | 0.0 | 1.0 | 0.00 | 0.02 | 0.02 | 51 | 1012.5 |
| 20260507204424 | 58 | 52 | 3.0 | 9.0 | 0.00 | 0.02 | 0.02 | 48 | 1012.6 |
| 20260507203922 | 57 | 272 | 1.0 | 3.0 | 0.00 | 0.02 | 0.02 | 53 | 1012.5 |
| 20260507203420 | 57 | 45 | 3.0 | 4.0 | 0.00 | 0.02 | 0.02 | 53 | 1012.6 |
| 20260507202916 | 59 | 18 | 2.0 | 4.0 | 0.00 | 0.02 | 0.02 | 50 | 1012.5 |
| 20260507202413 | 59 | 199 | 3.0 | 10.0 | 0.00 | 0.02 | 0.02 | 48 | 1012.8 |
| 20260507201908 | 58 | 326 | 4.0 | 9.0 | 0.00 | 0.02 | 0.02 | 47 | 1012.7 |
| 20260507201404 | 58 | 300 | 4.0 | 6.0 | 0.00 | 0.02 | 0.02 | 52 | 1012.8 |
| 20260507200900 | 58 | 203 | 8.0 | 10.0 | 0.00 | 0.02 | 0.02 | 47 | 1012.9 |
| 20260507200356 | 59 | 322 | 6.0 | 8.0 | 0.00 | 0.02 | 0.02 | 49 | 1012.7 |
| 20260507195852 | 59 | 306 | 6.0 | 13.0 | 0.00 | 0.02 | 0.02 | 49 | 1012.9 |
| 20260507195350 | 60 | 265 | 6.0 | 8.0 | 0.00 | 0.02 | 0.02 | 48 | 1013.1 |
| 20260507194847 | 60 | 146 | 3.0 | 6.0 | 0.00 | 0.02 | 0.02 | 45 | 1013.0 |
| 20260507194343 | 58 | 156 | 3.0 | 7.0 | 0.00 | 0.02 | 0.02 | 54 | 1013.1 |
| 20260507193840 | 58 | 268 | 1.0 | 7.0 | 0.00 | 0.02 | 0.02 | 49 | 1012.9 |
| 20260507193337 | 58 | 259 | 2.0 | 10.0 | 0.00 | 0.02 | 0.02 | 50 | 1013.1 |
| 20260507192833 | 57 | 212 | 4.0 | 8.0 | 0.00 | 0.02 | 0.02 | 52 | 1013.0 |
| 20260507192330 | 59 | 264 | 8.0 | 14.0 | 0.00 | 0.02 | 0.02 | 50 | 1013.1 |
| 20260507191826 | 57 | 255 | 1.0 | 6.0 | 0.00 | 0.02 | 0.02 | 52 | 1013.1 |
| 20260507191322 | 57 | 249 | 3.0 | 7.0 | 0.00 | 0.02 | 0.02 | 52 | 1013.2 |
| 20260507190819 | 56 | 336 | 0.0 | 3.0 | 0.00 | 0.02 | 0.02 | 54 | 1013.2 |
| 20260507190318 | 56 | 303 | 5.0 | 6.0 | 0.00 | 0.02 | 0.02 | 57 | 1013.0 |
| 20260507185816 | 56 | 234 | 2.0 | 7.0 | 0.00 | 0.02 | 0.02 | 56 | 1013.1 |
| 20260507185313 | 56 | 260 | 4.0 | 10.0 | 0.00 | 0.02 | 0.02 | 57 | 1013.2 |
| 20260507184810 | 58 | 272 | 7.0 | 10.0 | 0.00 | 0.02 | 0.02 | 55 | 1013.3 |
| 20260507184308 | 59 | 152 | 2.0 | 4.0 | 0.00 | 0.02 | 0.02 | 53 | 1013.2 |
| 20260507183804 | 57 | 29 | 3.0 | 4.0 | 0.00 | 0.02 | 0.02 | 54 | 1013.4 |
| 20260507183302 | 56 | 202 | 2.0 | 11.0 | 0.00 | 0.02 | 0.02 | 56 | 1013.4 |
| 20260507182759 | 57 | 296 | 7.0 | 11.0 | 0.00 | 0.02 | 0.02 | 57 | 1013.3 |
| 20260507182253 | 58 | 139 | 3.0 | 10.0 | 0.00 | 0.02 | 0.02 | 54 | 1013.1 |
| 20260507181751 | 58 | 282 | 7.0 | 9.0 | 0.00 | 0.02 | 0.02 | 54 | 1013.1 |
| 20260507181247 | 60 | 24 | 2.0 | 3.0 | 0.00 | 0.02 | 0.02 | 54 | 1013.1 |
| 20260507180744 | 58 | 142 | 2.0 | 3.0 | 0.00 | 0.02 | 0.02 | 58 | 1013.1 |
| 20260507180241 | 56 | 40 | 8.0 | 10.0 | 0.00 | 0.02 | 0.02 | 57 | 1013.0 |
| 20260507175736 | 56 | 248 | 5.0 | 8.0 | 0.00 | 0.02 | 0.02 | 61 | 1013.1 |
| 20260507175233 | 58 | 303 | 7.0 | 11.0 | 0.00 | 0.02 | 0.02 | 56 | 1013.2 |
| 20260507174731 | 59 | 253 | 8.0 | 10.0 | 0.00 | 0.02 | 0.02 | 56 | 1013.1 |
| 20260507174228 | 57 | 214 | 3.0 | 4.0 | 0.00 | 0.02 | 0.02 | 63 | 1013.1 |
| 20260507173726 | 56 | 55 | 6.0 | 13.0 | 0.00 | 0.02 | 0.02 | 56 | 1013.3 |
| 20260507173222 | 56 | 96 | 2.0 | 4.0 | 0.00 | 0.02 | 0.02 | 55 | 1013.5 |
| 20260507172719 | 56 | 355 | 6.0 | 7.0 | 0.00 | 0.02 | 0.02 | 59 | 1013.9 |
| 20260507172216 | 57 | 27 | 2.0 | 4.0 | 0.00 | 0.02 | 0.02 | 62 | 1013.5 |
| 20260507171716 | 57 | 118 | 2.0 | 6.0 | 0.00 | 0.02 | 0.02 | 56 | 1013.7 |
| 20260507171214 | 59 | 310 | 5.0 | 9.0 | 0.00 | 0.02 | 0.02 | 55 | 1013.9 |
| 20260507170710 | 58 | 150 | 3.0 | 4.0 | 0.00 | 0.02 | 0.02 | 55 | 1014.1 |
| 20260507170208 | 57 | 335 | 2.0 | 7.0 | 0.00 | 0.02 | 0.02 | 59 | 1013.9 |
| 20260507165703 | 56 | 258 | 4.0 | 13.0 | 0.00 | 0.02 | 0.02 | 56 | 1014.0 |
| 20260507165159 | 55 | 142 | 3.0 | 8.0 | 0.00 | 0.02 | 0.02 | 60 | 1014.1 |
| 20260507164655 | 56 | 216 | 4.0 | 10.0 | 0.00 | 0.02 | 0.02 | 59 | 1014.2 |
| 20260507164153 | 55 | 267 | 8.0 | 11.0 | 0.00 | 0.02 | 0.02 | 59 | 1014.3 |
| 20260507163650 | 55 | 298 | 5.0 | 6.0 | 0.00 | 0.02 | 0.02 | 59 | 1014.6 |
| 20260507163148 | 55 | 38 | 2.0 | 4.0 | 0.00 | 0.02 | 0.02 | 60 | 1014.4 |
| 20260507162643 | 55 | 51 | 0.0 | 4.0 | 0.00 | 0.02 | 0.02 | 63 | 1014.5 |
| 20260507162140 | 54 | 247 | 0.0 | 4.0 | 0.00 | 0.02 | 0.02 | 63 | 1014.7 |
| 20260507161636 | 54 | 296 | 4.0 | 4.0 | 0.00 | 0.02 | 0.02 | 61 | 1014.7 |
| 20260507161133 | 53 | 353 | 1.0 | 4.0 | 0.00 | 0.02 | 0.02 | 63 | 1014.7 |
| 20260507160629 | 54 | 228 | 2.0 | 2.0 | 0.00 | 0.02 | 0.02 | 61 | 1014.7 |
| 20260507160126 | 54 | 351 | 0.0 | 4.0 | 0.00 | 0.02 | 0.02 | 61 | 1014.5 |
| 20260507155621 | 54 | 324 | 8.0 | 9.0 | 0.00 | 0.02 | 0.02 | 64 | 1014.5 |
| 20260507155118 | 53 | 114 | 2.0 | 3.0 | 0.00 | 0.02 | 0.02 | 63 | 1014.6 |
| 20260507154615 | 53 | 73 | 1.0 | 4.0 | 0.00 | 0.02 | 0.02 | 63 | 1014.6 |
| 20260507154112 | 53 | 89 | 4.0 | 4.0 | 0.00 | 0.02 | 0.02 | 68 | 1014.7 |
| 20260507153609 | 53 | 176 | 0.0 | 3.0 | 0.00 | 0.02 | 0.02 | 69 | 1014.7 |
| 20260507153105 | 53 | 130 | 2.0 | 6.0 | 0.00 | 0.02 | 0.02 | 67 | 1014.8 |
| 20260507152602 | 53 | 39 | 4.0 | 6.0 | 0.00 | 0.02 | 0.02 | 67 | 1014.8 |
| 20260507152057 | 52 | 121 | 0.0 | 8.0 | 0.00 | 0.02 | 0.02 | 66 | 1014.8 |
| 20260507151554 | 53 | 50 | 3.0 | 4.0 | 0.00 | 0.02 | 0.02 | 68 | 1014.9 |
| 20260507151051 | 52 | 88 | 2.0 | 6.0 | 0.00 | 0.02 | 0.02 | 66 | 1015.0 |
| 20260507150548 | 52 | 41 | 7.0 | 8.0 | 0.00 | 0.02 | 0.02 | 64 | 1014.9 |
| 20260507150039 | 52 | 105 | 0.0 | 4.0 | 0.00 | 0.02 | 0.02 | 67 | 1015.0 |
| 20260507145533 | 51 | 269 | 1.0 | 4.0 | 0.00 | 0.02 | 0.02 | 68 | 1015.0 |
| 20260507145032 | 52 | 307 | 4.0 | 10.0 | 0.00 | 0.02 | 0.02 | 66 | 1015.0 |
| 20260507144528 | 52 | 288 | 1.0 | 4.0 | 0.00 | 0.02 | 0.02 | 65 | 1015.0 |
| 20260507144026 | 53 | 56 | 4.0 | 6.0 | 0.00 | 0.02 | 0.02 | 68 | 1014.9 |
| 20260507143522 | 51 | 145 | 0.0 | 3.0 | 0.00 | 0.02 | 0.02 | 70 | 1015.1 |
| 20260507143020 | 51 | 205 | 3.0 | 7.0 | 0.00 | 0.02 | 0.02 | 69 | 1015.4 |
| 20260507142515 | 51 | 210 | 0.0 | 1.0 | 0.00 | 0.02 | 0.02 | 78 | 1015.3 |
| 20260507142012 | 51 | 121 | 1.0 | 2.0 | 0.00 | 0.02 | 0.02 | 82 | 1015.4 |
| 20260507141508 | 50 | 138 | 2.0 | 4.0 | 0.00 | 0.02 | 0.02 | 80 | 1015.6 |
| 20260507141006 | 51 | 132 | 1.0 | 3.0 | 0.00 | 0.02 | 0.02 | 81 | 1015.6 |
| 20260507140502 | 50 | 163 | 0.0 | 1.0 | 0.00 | 0.02 | 0.02 | 78 | 1015.6 |
| 20260507135959 | 50 | 163 | 1.0 | 3.0 | 0.00 | 0.02 | 0.02 | 82 | 1015.6 |
| 20260507135456 | 49 | 94 | 2.0 | 4.0 | 0.00 | 0.02 | 0.02 | 82 | 1015.6 |
| 20260507134953 | 49 | 65 | 3.0 | 3.0 | 0.00 | 0.02 | 0.02 | 83 | 1015.6 |
| 20260507134449 | 49 | 30 | 0.0 | 0.0 | 0.00 | 0.02 | 0.02 | 83 | 1015.7 |
| 20260507133946 | 49 | 87 | 2.0 | 2.0 | 0.00 | 0.02 | 0.02 | 83 | 1015.9 |
| 20260507133442 | 49 | 40 | 0.0 | 0.0 | 0.00 | 0.02 | 0.02 | 83 | 1015.7 |
| 20260507132941 | 49 | 161 | 1.0 | 3.0 | 0.00 | 0.02 | 0.02 | 84 | 1016.0 |
| 20260507132436 | 49 | 194 | 0.0 | 1.0 | 0.00 | 0.02 | 0.02 | 84 | 1016.0 |
| 20260507131933 | 48 | 260 | 0.0 | 2.0 | 0.00 | 0.02 | 0.02 | 85 | 1016.1 |
| 20260507131430 | 48 | 121 | 0.0 | 0.0 | 0.00 | 0.02 | 0.02 | 87 | 1015.9 |
| 20260507130927 | 48 | 255 | 0.0 | 0.0 | 0.00 | 0.02 | 0.02 | 86 | 1016.0 |
| 20260507130424 | 48 | 237 | 0.0 | 0.0 | 0.00 | 0.02 | 0.02 | 89 | 1016.0 |
| 20260507125923 | 48 | 168 | 0.0 | 0.0 | 0.00 | 0.02 | 0.02 | 89 | 1016.2 |
| 20260507125420 | 48 | 200 | 0.0 | 0.0 | 0.00 | 0.02 | 0.02 | 89 | 1016.4 |
| 20260507124918 | 47 | 195 | 0.0 | 0.0 | 0.00 | 0.02 | 0.02 | 90 | 1016.2 |
| 20260507124413 | 47 | 203 | 0.0 | 0.0 | 0.00 | 0.02 | 0.02 | 91 | 1016.4 |
| 20260507123912 | 47 | 236 | 0.0 | 0.0 | 0.00 | 0.02 | 0.02 | 92 | 1016.2 |
| 20260507123409 | 46 | 254 | 0.0 | 0.0 | 0.00 | 0.02 | 0.02 | 94 | 1016.4 |
| 20260507122905 | 46 | 283 | 0.0 | 0.0 | 0.00 | 0.02 | 0.02 | 96 | 1016.2 |
| 20260507122400 | 46 | 283 | 0.0 | 0.0 | 0.00 | 0.02 | 0.02 | 95 | 1016.4 |
| 20260507121857 | 46 | 283 | 0.0 | 0.0 | 0.00 | 0.02 | 0.02 | 96 | 1016.2 |
| 20260507121352 | 46 | 286 | 0.0 | 0.0 | 0.00 | 0.02 | 0.02 | 96 | 1016.0 |
| 20260507120849 | 45 | 297 | 0.0 | 0.0 | 0.00 | 0.02 | 0.02 | 96 | 1016.3 |
| 20260507120346 | 45 | 294 | 0.0 | 0.0 | 0.00 | 0.02 | 0.02 | 95 | 1016.0 |
| 20260507115842 | 45 | 295 | 0.0 | 0.0 | 0.00 | 0.02 | 0.02 | 96 | 1016.0 |
| 20260507115337 | 45 | 269 | 0.0 | 0.0 | 0.00 | 0.02 | 0.02 | 96 | 1016.1 |
| 20260507114833 | 45 | 294 | 0.0 | 0.0 | 0.00 | 0.02 | 0.02 | 97 | 1016.0 |
| 20260507114331 | 45 | 325 | 0.0 | 0.0 | 0.00 | 0.02 | 0.02 | 97 | 1015.9 |
| 20260507113828 | 46 | 283 | 0.0 | 0.0 | 0.00 | 0.02 | 0.02 | 97 | 1015.9 |
| 20260507113325 | 46 | 276 | 0.0 | 0.0 | 0.00 | 0.02 | 0.02 | 97 | 1015.7 |
| 20260507112823 | 46 | 293 | 0.0 | 0.0 | 0.00 | 0.02 | 0.02 | 97 | 1015.7 |
| 20260507112319 | 45 | 286 | 0.0 | 0.0 | 0.00 | 0.02 | 0.02 | 97 | 1015.6 |
| 20260507111818 | 46 | 286 | 0.0 | 0.0 | 0.00 | 0.02 | 0.02 | 97 | 1015.7 |
| 20260507111314 | 45 | 286 | 0.0 | 0.0 | 0.00 | 0.02 | 0.02 | 97 | 1015.7 |
| 20260507110810 | 45 | 286 | 0.0 | 0.0 | 0.00 | 0.02 | 0.02 | 97 | 1015.6 |
| 20260507110307 | 45 | 286 | 0.0 | 0.0 | 0.00 | 0.02 | 0.02 | 97 | 1015.4 |
| 20260507105804 | 45 | 286 | 0.0 | 0.0 | 0.00 | 0.02 | 0.02 | 97 | 1015.3 |
| 20260507105301 | 46 | 262 | 0.0 | 0.0 | 0.00 | 0.02 | 0.02 | 97 | 1015.4 |
| 20260507104758 | 46 | 262 | 0.0 | 0.0 | 0.00 | 0.02 | 0.02 | 96 | 1015.1 |
| 20260507104254 | 46 | 247 | 0.0 | 0.0 | 0.00 | 0.02 | 0.02 | 96 | 1015.2 |
| 20260507103750 | 46 | 284 | 1.0 | 3.0 | 0.00 | 0.02 | 0.02 | 95 | 1015.2 |
| 20260507103246 | 46 | 150 | 1.0 | 2.0 | 0.00 | 0.02 | 0.02 | 96 | 1015.2 |
| 20260507102743 | 46 | 130 | 2.0 | 3.0 | 0.00 | 0.02 | 0.02 | 95 | 1015.0 |
| 20260507102239 | 46 | 128 | 0.0 | 0.0 | 0.00 | 0.02 | 0.02 | 95 | 1015.1 |
| 20260507101735 | 46 | 122 | 0.0 | 0.0 | 0.00 | 0.02 | 0.02 | 93 | 1015.1 |
| 20260507101230 | 46 | 26 | 0.0 | 0.0 | 0.00 | 0.02 | 0.02 | 94 | 1015.2 |
| 20260507100727 | 46 | 31 | 0.0 | 1.0 | 0.00 | 0.02 | 0.02 | 94 | 1015.1 |
| 20260507100226 | 46 | 353 | 0.0 | 1.0 | 0.00 | 0.02 | 0.02 | 94 | 1015.0 |
| 20260507095724 | 46 | 348 | 2.0 | 4.0 | 0.00 | 0.02 | 0.02 | 94 | 1015.0 |
| 20260507095220 | 46 | 328 | 3.0 | 7.0 | 0.00 | 0.02 | 0.02 | 94 | 1014.9 |
| 20260507094717 | 46 | 314 | 1.0 | 3.0 | 0.00 | 0.02 | 0.02 | 95 | 1014.9 |
| 20260507094214 | 46 | 326 | 0.0 | 3.0 | 0.00 | 0.02 | 0.02 | 96 | 1014.8 |
| 20260507093711 | 46 | 9 | 2.0 | 4.0 | 0.00 | 0.02 | 0.02 | 97 | 1014.8 |
| 20260507093209 | 46 | 43 | 3.0 | 3.0 | 0.00 | 0.02 | 0.02 | 99 | 1014.8 |
| 20260507092706 | 47 | 41 | 3.0 | 3.0 | 0.00 | 0.02 | 0.02 | 99 | 1014.7 |
| 20260507092202 | 47 | 28 | 3.0 | 4.0 | 0.00 | 0.02 | 0.02 | 99 | 1014.4 |
| 20260507091659 | 47 | 128 | 0.0 | 0.0 | 0.00 | 0.02 | 0.02 | 99 | 1014.6 |
| 20260507091156 | 47 | 3 | 0.0 | 0.0 | 0.00 | 0.02 | 0.02 | 99 | 1014.7 |
| 20260507090651 | 47 | 3 | 0.0 | 0.0 | 0.00 | 0.02 | 0.02 | 99 | 1014.5 |
| 20260507090148 | 47 | 3 | 0.0 | 0.0 | 0.00 | 0.02 | 0.02 | 99 | 1014.6 |
| 20260507085645 | 47 | 3 | 0.0 | 0.0 | 0.00 | 0.02 | 0.02 | 99 | 1014.9 |
| 20260507085142 | 47 | 3 | 0.0 | 0.0 | 0.00 | 0.02 | 0.02 | 99 | 1014.9 |
| 20260507084639 | 47 | 3 | 0.0 | 0.0 | 0.00 | 0.02 | 0.02 | 99 | 1014.9 |
| 20260507084135 | 47 | 2 | 0.0 | 0.0 | 0.00 | 0.02 | 0.02 | 99 | 1014.8 |
| 20260507083632 | 47 | 14 | 0.0 | 0.0 | 0.00 | 0.02 | 0.02 | 99 | 1014.6 |
| 20260507083129 | 47 | 26 | 0.0 | 0.0 | 0.00 | 0.02 | 0.02 | 99 | 1014.8 |
| 20260507082625 | 47 | 28 | 0.0 | 0.0 | 0.00 | 0.02 | 0.02 | 99 | 1014.9 |
| 20260507082121 | 47 | 32 | 0.0 | 0.0 | 0.00 | 0.02 | 0.02 | 99 | 1014.6 |
| 20260507081618 | 47 | 29 | 0.0 | 0.0 | 0.00 | 0.02 | 0.02 | 99 | 1014.8 |
| 20260507081115 | 47 | 52 | 0.0 | 0.0 | 0.07 | 0.02 | 0.02 | 99 | 1014.7 |
| 20260507080611 | 47 | 358 | 0.0 | 0.0 | 0.07 | 0.02 | 0.02 | 99 | 1014.7 |
| 20260507080108 | 47 | 327 | 0.0 | 0.0 | 0.00 | 0.01 | 0.01 | 99 | 1014.9 |
| 20260507075602 | 47 | 342 | 0.0 | 0.0 | 0.00 | 0.01 | 0.01 | 99 | 1015.1 |
| 20260507075059 | 47 | 5 | 0.0 | 0.0 | 0.00 | 0.01 | 0.01 | 99 | 1015.1 |
| 20260507074556 | 47 | 24 | 0.0 | 0.0 | 0.00 | 0.01 | 0.01 | 99 | 1014.9 |
| 20260507074054 | 47 | 51 | 0.0 | 0.0 | 0.00 | 0.01 | 0.01 | 99 | 1014.8 |
| 20260507073550 | 47 | 39 | 0.0 | 0.0 | 0.00 | 0.01 | 0.01 | 99 | 1014.8 |
| 20260507073047 | 47 | 15 | 0.0 | 0.0 | 0.00 | 0.01 | 0.01 | 99 | 1014.8 |
| 20260507072544 | 47 | 40 | 0.0 | 0.0 | 0.00 | 0.01 | 0.01 | 99 | 1014.9 |
| 20260507072041 | 47 | 32 | 0.0 | 0.0 | 0.00 | 0.01 | 0.01 | 99 | 1015.0 |
| 20260507071539 | 47 | 40 | 0.0 | 0.0 | 0.00 | 0.01 | 0.01 | 99 | 1014.9 |
| 20260507071035 | 47 | 15 | 0.0 | 0.0 | 0.00 | 0.01 | 0.01 | 99 | 1014.8 |
| 20260507070532 | 47 | 45 | 0.0 | 0.0 | 0.00 | 0.01 | 0.01 | 99 | 1014.9 |
| 20260507070030 | 47 | 35 | 1.0 | 2.0 | 0.00 | 0.01 | 0.01 | 99 | 1014.6 |
| 20260507065526 | 47 | 47 | 1.0 | 2.0 | 0.00 | 0.01 | 0.01 | 99 | 1014.7 |
| 20260507065023 | 47 | 56 | 1.0 | 3.0 | 0.00 | 0.01 | 0.01 | 99 | 1014.7 |
| 20260507064521 | 47 | 34 | 1.0 | 2.0 | 0.00 | 0.01 | 0.01 | 98 | 1014.7 |
| 20260507064019 | 48 | 44 | 1.0 | 2.0 | 0.00 | 0.01 | 0.01 | 98 | 1014.8 |
| 20260507063516 | 48 | 44 | 0.0 | 1.0 | 0.00 | 0.01 | 0.01 | 98 | 1014.9 |
| 20260507063013 | 48 | 53 | 1.0 | 2.0 | 0.00 | 0.01 | 0.01 | 98 | 1014.8 |
| 20260507062510 | 48 | 37 | 1.0 | 2.0 | 0.00 | 0.01 | 0.01 | 98 | 1014.7 |
| 20260507062008 | 48 | 38 | 0.0 | 0.0 | 0.00 | 0.01 | 0.01 | 98 | 1014.8 |
| 20260507061505 | 48 | 53 | 0.0 | 1.0 | 0.00 | 0.01 | 0.01 | 98 | 1014.8 |
| 20260507061003 | 48 | 56 | 3.0 | 3.0 | 0.00 | 0.01 | 0.01 | 97 | 1014.9 |
| 20260507060500 | 48 | 48 | 1.0 | 2.0 | 0.00 | 0.01 | 0.01 | 97 | 1015.0 |
| 20260507055956 | 48 | 37 | 2.0 | 3.0 | 0.00 | 0.01 | 0.01 | 96 | 1015.0 |
| 20260507055451 | 48 | 354 | 2.0 | 4.0 | 0.00 | 0.01 | 0.01 | 96 | 1015.3 |
| 20260507054948 | 48 | 298 | 0.0 | 0.0 | 0.00 | 0.01 | 0.01 | 96 | 1015.3 |
| 20260507054444 | 48 | 21 | 2.0 | 2.0 | 0.00 | 0.01 | 0.01 | 96 | 1015.4 |
| 20260507053942 | 48 | 45 | 2.0 | 3.0 | 0.00 | 0.01 | 0.01 | 96 | 1015.8 |
| 20260507053439 | 48 | 45 | 2.0 | 4.0 | 0.00 | 0.01 | 0.01 | 95 | 1015.4 |
| 20260507052938 | 48 | 66 | 4.0 | 6.0 | 0.00 | 0.01 | 0.01 | 95 | 1015.3 |
| 20260507052435 | 49 | 11 | 0.0 | 2.0 | 0.00 | 0.01 | 0.01 | 95 | 1015.4 |
| 20260507051932 | 49 | 257 | 2.0 | 3.0 | 0.00 | 0.01 | 0.01 | 96 | 1015.4 |
| 20260507051429 | 49 | 43 | 0.0 | 1.0 | 0.00 | 0.01 | 0.01 | 95 | 1015.4 |
| 20260507050926 | 49 | 65 | 0.0 | 3.0 | 0.00 | 0.01 | 0.01 | 95 | 1015.4 |
| 20260507050423 | 49 | 88 | 1.0 | 6.0 | 0.00 | 0.01 | 0.01 | 95 | 1015.4 |
| 20260507045920 | 49 | 61 | 5.0 | 7.0 | 0.00 | 0.01 | 0.01 | 95 | 1015.1 |
| 20260507045416 | 50 | 54 | 4.0 | 4.0 | 0.05 | 0.01 | 0.01 | 97 | 1015.2 |
| 20260507044914 | 51 | 268 | 0.0 | 0.0 | 0.05 | 0.01 | 0.01 | 97 | 1015.4 |
| 20260507044410 | 51 | 257 | 0.0 | 0.0 | 0.00 | 0.00 | 0.00 | 97 | 1015.1 |
| 20260507043906 | 51 | 202 | 0.0 | 0.0 | 0.00 | 0.00 | 0.00 | 97 | 1015.1 |
| 20260507043403 | 51 | 195 | 0.0 | 0.0 | 0.00 | 0.00 | 0.00 | 96 | 1015.2 |
| 20260507042859 | 51 | 143 | 0.0 | 0.0 | 0.00 | 0.00 | 0.00 | 95 | 1015.0 |
| 20260507042356 | 51 | 142 | 0.0 | 0.0 | 0.00 | 0.00 | 0.00 | 94 | 1015.0 |
| 20260507041852 | 51 | 131 | 0.0 | 0.0 | 0.00 | 0.00 | 0.00 | 94 | 1014.9 |
| 20260507041349 | 51 | 325 | 0.0 | 0.0 | 0.00 | 0.00 | 0.00 | 95 | 1014.9 |
| 20260507040847 | 51 | 309 | 0.0 | 1.0 | 0.00 | 0.00 | 0.00 | 94 | 1014.9 |
| 20260507040342 | 51 | 115 | 2.0 | 3.0 | 0.00 | 0.39 | 0.39 | 92 | 1014.7 |
| 20260507035838 | 51 | 197 | 0.0 | 0.0 | 0.00 | 0.39 | 0.39 | 93 | 1014.8 |
| 20260507035333 | 51 | 58 | 0.0 | 0.0 | 0.00 | 0.39 | 0.39 | 93 | 1014.9 |
| 20260507034831 | 51 | 3 | 2.0 | 3.0 | 0.00 | 0.39 | 0.39 | 94 | 1014.9 |
| 20260507034328 | 51 | 326 | 1.0 | 2.0 | 0.00 | 0.39 | 0.39 | 94 | 1014.7 |